»·PEaware :: DCM2499 KOTH-KAST

DCM2499 :: KOTH-KAST

FLIGHT INFORMATION

Flight Status: Arrived
Operator: Unknown
More flights by this operator :: More flights under this callsign
Pilot: Alec D. (17934)
Aircraft: BEECH AIRCRAFT SUPER KING AIR COMMUTER
(BE20)
More flights by this aircraft type
Origin: KOTH North Bend Mun
United States
Destination: KAST Astoria Regl
United States
More flights between these airports :: More routes between these airports
Route: OTH V27 ZIGPI
File this flight plan on PilotEdge
Remarks:
Altitude:
(Current/Filed)
16,000ft
Speed:
(Current/Filed)
270kts
Departed: 13-Apr-18 09:41 AM
Arrived: 13-Apr-18 10:40 AM
Distance/Time
Traveled:
165nm/0:59
Distance/Time
To Go:
Arrived

Flight Plot

Page will automatically refresh every two minutes.

Flight plan parsing failed; only flown route is shown


Map Options




Map Legend


Flown Route
Filed Route
Departure Airport
Arrival Airport
Navaid (VOR, NDB)
Fix

Horizontal Profiles

Position Reports

Time Latitude Longitude Heading Altitude Ground
Speed
13-Apr-18 09:10 43.415781 -124.245709 150 21ft 0kts
13-Apr-18 09:11 43.415781 -124.245709 150 21ft 0kts
13-Apr-18 09:12 43.415781 -124.245709 150 21ft 0kts
13-Apr-18 09:13 43.415781 -124.245709 150 21ft 0kts
13-Apr-18 09:14 43.415781 -124.245709 150 21ft 0kts
13-Apr-18 09:15 43.415781 -124.245709 150 21ft 0kts
13-Apr-18 09:16 43.415781 -124.245709 150 21ft 0kts
13-Apr-18 09:17 43.415781 -124.245709 150 21ft 0kts
13-Apr-18 09:18 43.415781 -124.245709 150 21ft 0kts
13-Apr-18 09:19 43.415781 -124.245709 150 21ft 0kts
13-Apr-18 09:20 43.415781 -124.245709 150 21ft 0kts
13-Apr-18 09:21 43.415781 -124.245709 150 21ft 0kts
13-Apr-18 09:22 43.415781 -124.245709 150 21ft 0kts
13-Apr-18 09:23 43.415781 -124.245709 150 21ft 0kts
13-Apr-18 09:24 43.415781 -124.245709 150 21ft 0kts
13-Apr-18 09:25 43.415781 -124.245709 150 21ft 0kts
13-Apr-18 09:26 43.415781 -124.245709 150 21ft 0kts
13-Apr-18 09:27 43.415781 -124.245709 150 21ft 0kts
13-Apr-18 09:28 43.415781 -124.245709 150 21ft 0kts
13-Apr-18 09:29 43.415781 -124.245709 150 21ft 0kts
13-Apr-18 09:30 43.415781 -124.245709 150 21ft 0kts
13-Apr-18 09:31 43.415781 -124.245709 150 21ft 0kts
13-Apr-18 09:32 43.415781 -124.245709 150 21ft 0kts
13-Apr-18 09:33 43.415781 -124.245709 150 21ft 0kts
13-Apr-18 09:34 43.416556 -124.245030 325 21ft 10kts
13-Apr-18 09:35 43.418902 -124.247221 267 21ft 9kts
13-Apr-18 09:36 43.417223 -124.251405 239 20ft 15kts
13-Apr-18 09:37 43.415382 -124.255886 240 21ft 10kts
13-Apr-18 09:38 43.414030 -124.259212 240 21ft 6kts
13-Apr-18 09:39 43.415038 -124.259913 62 21ft 3kts
13-Apr-18 09:40 43.424838 -124.234123 65 495ft 116kts
13-Apr-18 09:41 43.455324 -124.238243 304 1866ft 152kts
13-Apr-18 09:42 43.491552 -124.241260 61 3194ft 176kts
13-Apr-18 09:43 43.469202 -124.199013 158 4797ft 158kts
13-Apr-18 09:44 43.428299 -124.175808 159 6436ft 162kts
13-Apr-18 09:45 43.418718 -124.116255 56 7674ft 199kts
13-Apr-18 09:46 43.467751 -124.101560 334 9279ft 188kts
13-Apr-18 09:47 43.510127 -124.134848 314 11157ft 171kts
13-Apr-18 09:48 43.555907 -124.153443 349 12752ft 190kts
13-Apr-18 09:49 43.609180 -124.150252 350 14289ft 195kts
13-Apr-18 09:50 43.663303 -124.145615 350 15782ft 198kts
13-Apr-18 09:51 43.712205 -124.141669 351 15995ft 227kts
13-Apr-18 09:52 43.790511 -124.134451 353 15989ft 254kts
13-Apr-18 09:53 43.862476 -124.127614 353 15984ft 264kts
13-Apr-18 09:54 43.936278 -124.120687 353 15965ft 269kts
13-Apr-18 09:55 44.011165 -124.113666 353 15947ft 271kts
13-Apr-18 09:56 44.086067 -124.106655 353 15942ft 272kts
13-Apr-18 09:57 44.148771 -124.100801 353 15939ft 272kts
13-Apr-18 09:58 44.224042 -124.093732 353 15939ft 272kts
13-Apr-18 09:59 44.299311 -124.086649 353 15972ft 271kts
13-Apr-18 10:00 44.374387 -124.079583 353 15976ft 271kts
13-Apr-18 10:01 44.449594 -124.072491 353 15976ft 272kts
13-Apr-18 10:02 44.524827 -124.065377 353 15975ft 272kts
13-Apr-18 10:03 44.599911 -124.057900 354 15977ft 272kts
13-Apr-18 10:04 44.674960 -124.049572 354 15994ft 272kts
13-Apr-18 10:05 44.750256 -124.041228 354 15994ft 272kts
13-Apr-18 10:06 44.825516 -124.032840 354 15995ft 273kts
13-Apr-18 10:07 44.900669 -124.024436 354 15994ft 273kts
13-Apr-18 10:08 44.976308 -124.015940 354 15878ft 275kts
13-Apr-18 10:09 45.053799 -124.007375 354 14906ft 285kts
13-Apr-18 10:10 45.133208 -123.998449 355 13941ft 290kts
13-Apr-18 10:11 45.213774 -123.989368 356 12967ft 291kts
13-Apr-18 10:12 45.293140 -123.980347 356 11786ft 283kts
13-Apr-18 10:13 45.370737 -123.971611 357 10612ft 280kts
13-Apr-18 10:14 45.447732 -123.962880 358 9438ft 276kts
13-Apr-18 10:15 45.523915 -123.954205 359 8273ft 275kts
13-Apr-18 10:16 45.598808 -123.945615 0 7080ft 268kts
13-Apr-18 10:17 45.671527 -123.937232 1 6083ft 251kts
13-Apr-18 10:18 45.736265 -123.929649 1 6068ft 221kts
13-Apr-18 10:19 45.794974 -123.922806 0 6057ft 204kts
13-Apr-18 10:20 45.848425 -123.908176 36 6027ft 196kts
13-Apr-18 10:21 45.859426 -123.839490 120 5274ft 184kts
13-Apr-18 10:22 45.855810 -123.763226 83 4491ft 207kts
13-Apr-18 10:23 45.874162 -123.688597 70 4412ft 191kts
13-Apr-18 10:24 45.899633 -123.623676 59 4412ft 189kts
13-Apr-18 10:25 45.932898 -123.564239 48 4410ft 194kts
13-Apr-18 10:26 45.973430 -123.512841 39 4414ft 195kts
13-Apr-18 10:27 46.018960 -123.472332 29 4424ft 193kts
13-Apr-18 10:28 46.068271 -123.443412 18 4434ft 192kts
13-Apr-18 10:29 46.120167 -123.430379 342 4424ft 188kts
13-Apr-18 10:30 46.144267 -123.482556 256 4444ft 157kts
13-Apr-18 10:31 46.139205 -123.543532 260 4408ft 146kts
13-Apr-18 10:32 46.140297 -123.592620 263 3789ft 115kts
13-Apr-18 10:33 46.142953 -123.642246 267 3145ft 129kts
13-Apr-18 10:34 46.146503 -123.693479 265 2458ft 128kts
13-Apr-18 10:35 46.149932 -123.743477 266 1781ft 119kts
13-Apr-18 10:36 46.152933 -123.787730 264 1167ft 107kts
13-Apr-18 10:37 46.155772 -123.829093 264 610ft 105kts
13-Apr-18 10:38 46.158534 -123.869270 265 47ft 90kts
13-Apr-18 10:39 46.159538 -123.885502 275 19ft 31kts
13-Apr-18 10:40 46.158664 -123.885494 123 19ft 0kts
13-Apr-18 10:41 46.157718 -123.883323 126 18ft 0kts
13-Apr-18 10:42 46.156369 -123.881605 242 19ft 1kts
13-Apr-18 10:43 46.156363 -123.881623 241 19ft 0kts
13-Apr-18 10:44 46.156363 -123.881623 239 19ft 0kts
13-Apr-18 10:45 46.156364 -123.881624 234 19ft 0kts
13-Apr-18 10:46 46.156365 -123.881625 232 19ft 0kts

Navigation Log

Ident Type
Flight plan parsing failed, navigation log unavailable